Time;durP1;ratioP1;P1;durP2;ratioP2;P2;SDS_P1;SDS_P2;PMS_P1;PMS_P2;Temp;Humidity;BMP_temperature;BMP_pressure;BME280_temperature;BME280_humidity;BME280_pressure;Samples;Min_cycle;Max_cycle;Signal;HPM_P1;HPM_P2
2023/07/31 00:00:59;;;;;;;12.30;2.63;;;19.20;1.00;;;;;;4992954;28;20665;-76
2023/07/31 00:03:24;;;;;;;5.03;2.37;;;19.20;1.00;;;;;;4992597;28;20558;-75
2023/07/31 00:05:50;;;;;;;7.87;2.73;;;19.20;1.00;;;;;;4991139;28;20179;-76
2023/07/31 00:08:16;;;;;;;4.93;2.67;;;19.20;1.00;;;;;;4986391;28;20199;-78
2023/07/31 00:10:41;;;;;;;6.30;2.47;;;19.20;1.00;;;;;;4992357;28;20582;-77
2023/07/31 00:13:07;;;;;;;7.27;2.50;;;19.20;1.00;;;;;;4992427;28;20517;-76
2023/07/31 00:15:32;;;;;;;5.20;2.53;;;19.10;1.00;;;;;;4991195;28;20186;-77
2023/07/31 00:17:58;;;;;;;6.20;2.50;;;19.10;1.00;;;;;;4991714;28;20191;-76
2023/07/31 00:20:23;;;;;;;8.10;2.97;;;19.10;1.00;;;;;;4992254;28;20589;-76
2023/07/31 00:22:49;;;;;;;8.03;3.20;;;19.20;1.00;;;;;;4991956;28;20191;-75
2023/07/31 00:25:14;;;;;;;9.67;3.10;;;19.20;1.00;;;;;;4992253;28;20186;-76
2023/07/31 00:27:44;;;;;;;5.97;2.60;;;19.20;1.00;;;;;;4991682;28;20244;-73
2023/07/31 00:30:10;;;;;;;10.03;2.40;;;19.10;1.00;;;;;;4994474;28;20621;-75
2023/07/31 00:32:35;;;;;;;6.63;2.77;;;19.10;1.00;;;;;;4991728;28;20478;-75
2023/07/31 00:35:01;;;;;;;6.60;2.60;;;19.10;1.00;;;;;;4992004;28;20419;-75
2023/07/31 00:37:27;;;;;;;4.77;2.63;;;19.00;1.00;;;;;;4991812;28;20713;-76
2023/07/31 00:39:52;;;;;;;5.43;3.00;;;19.10;1.00;;;;;;4991561;28;20183;-75
2023/07/31 00:42:18;;;;;;;4.97;2.43;;;19.10;1.00;;;;;;4991981;28;20630;-75
2023/07/31 00:44:43;;;;;;;7.33;2.50;;;19.10;1.00;;;;;;4991595;28;20257;-76
2023/07/31 00:47:09;;;;;;;6.50;2.73;;;19.10;1.00;;;;;;4991176;28;20219;-77
2023/07/31 00:49:35;;;;;;;7.40;2.50;;;19.10;1.00;;;;;;4991624;28;20565;-75
2023/07/31 00:52:02;;;;;;;6.83;2.90;;;19.00;1.00;;;;;;4981864;28;20180;-74
2023/07/31 00:54:28;;;;;;;5.23;2.40;;;19.00;1.00;;;;;;4991674;28;20182;-76
2023/07/31 00:56:54;;;;;;;6.63;2.60;;;19.10;1.00;;;;;;4990166;28;20434;-76
2023/07/31 00:59:20;;;;;;;6.40;2.40;;;19.10;1.00;;;;;;4991247;28;20199;-75
2023/07/31 01:01:46;;;;;;;7.50;2.50;;;19.10;1.00;;;;;;4989916;28;20933;-76
2023/07/31 01:04:13;;;;;;;5.80;2.67;;;19.10;1.00;;;;;;4997713;28;20199;-77
2023/07/31 01:07:00;;;;;;;4.47;2.53;;;19.10;1.00;;;;;;4990604;28;20521;-75
2023/07/31 01:09:40;;;;;;;4.90;2.43;;;19.10;1.00;;;;;;4991459;28;20533;-76
2023/07/31 01:12:07;;;;;;;6.90;2.70;;;19.10;1.00;;;;;;4990994;28;21080;-76
2023/07/31 01:14:33;;;;;;;5.23;2.70;;;19.10;1.00;;;;;;4991263;28;20428;-76
2023/07/31 01:16:58;;;;;;;7.27;2.67;;;19.10;1.00;;;;;;4990710;28;20808;-76
2023/07/31 01:19:27;;;;;;;5.73;2.80;;;19.20;1.00;;;;;;4991250;28;20175;-75
2023/07/31 01:22:12;;;;;;;5.83;2.50;;;19.10;1.00;;;;;;4991494;28;20530;-76
2023/07/31 01:25:02;;;;;;;8.17;2.40;;;19.20;1.00;;;;;;4990407;28;20466;-75
2023/07/31 01:27:37;;;;;;;6.10;2.73;;;19.20;1.00;;;;;;4990736;28;20429;-76
2023/07/31 01:30:14;;;;;;;6.37;2.60;;;19.20;1.00;;;;;;4990991;28;20456;-76
2023/07/31 01:32:40;;;;;;;5.50;2.50;;;19.30;1.00;;;;;;4989161;28;21001;-76
2023/07/31 01:35:07;;;;;;;7.73;2.87;;;19.30;1.00;;;;;;4989640;28;20446;-76
2023/07/31 01:37:32;;;;;;;6.63;2.80;;;19.30;1.00;;;;;;4989730;28;20925;-76
2023/07/31 01:39:58;;;;;;;5.93;2.50;;;19.30;1.00;;;;;;4990449;28;20419;-77
2023/07/31 01:42:23;;;;;;;7.83;2.50;;;19.30;1.00;;;;;;4990774;28;20175;-76
2023/07/31 01:44:49;;;;;;;4.13;2.60;;;19.30;1.00;;;;;;4990032;28;20410;-78
2023/07/31 01:47:14;;;;;;;4.67;2.27;;;19.30;1.00;;;;;;4988545;28;20269;-76
2023/07/31 01:49:40;;;;;;;5.33;2.50;;;19.30;1.00;;;;;;4990371;28;20180;-77
2023/07/31 01:52:06;;;;;;;5.30;2.73;;;19.30;1.00;;;;;;4990858;28;20657;-76
2023/07/31 01:54:31;;;;;;;4.83;2.50;;;19.30;1.00;;;;;;4990494;28;20175;-75
2023/07/31 01:56:57;;;;;;;6.47;2.80;;;19.30;1.00;;;;;;4990302;28;20658;-75
2023/07/31 01:59:22;;;;;;;4.90;2.50;;;19.30;1.00;;;;;;4990549;28;20183;-77
2023/07/31 02:01:48;;;;;;;5.97;3.00;;;19.30;1.00;;;;;;4990103;28;20697;-75
2023/07/31 02:04:13;;;;;;;7.27;2.90;;;19.30;1.00;;;;;;4985009;28;20704;-76
2023/07/31 02:06:39;;;;;;;5.57;2.60;;;19.40;1.00;;;;;;4989723;28;20211;-76
2023/07/31 02:09:04;;;;;;;6.03;2.80;;;19.30;1.00;;;;;;4990041;28;20222;-76
2023/07/31 02:11:30;;;;;;;6.40;2.40;;;19.30;1.00;;;;;;4990465;28;20179;-76
2023/07/31 02:13:55;;;;;;;7.13;3.40;;;19.30;1.00;;;;;;4990278;28;20179;-76
2023/07/31 02:16:21;;;;;;;8.37;3.47;;;19.30;1.00;;;;;;4989891;28;20209;-77
2023/07/31 02:18:46;;;;;;;4.07;2.80;;;19.30;1.00;;;;;;4989737;28;20273;-75
2023/07/31 02:21:12;;;;;;;11.33;3.10;;;19.30;1.00;;;;;;4989927;28;20386;-76
2023/07/31 02:23:37;;;;;;;9.87;2.70;;;19.30;1.00;;;;;;4989302;28;20227;-75
2023/07/31 02:26:03;;;;;;;7.00;2.50;;;19.20;1.00;;;;;;4989427;28;20218;-75
2023/07/31 02:28:29;;;;;;;4.87;2.70;;;19.20;1.00;;;;;;4989830;28;20199;-75
2023/07/31 02:30:54;;;;;;;6.30;3.00;;;19.10;1.00;;;;;;4990280;28;20171;-76
2023/07/31 02:33:20;;;;;;;12.40;2.50;;;19.20;1.00;;;;;;4995630;28;20179;-75
2023/07/31 02:35:46;;;;;;;4.40;2.53;;;19.10;1.00;;;;;;4989841;28;20220;-75
2023/07/31 02:38:11;;;;;;;5.37;2.83;;;19.10;1.00;;;;;;4990074;28;20253;-76
2023/07/31 02:40:37;;;;;;;5.53;2.77;;;19.10;1.00;;;;;;4994058;28;20179;-77
2023/07/31 02:43:02;;;;;;;8.37;3.27;;;19.70;1.00;;;;;;4987979;28;20237;-76
2023/07/31 02:45:28;;;;;;;5.37;2.70;;;19.10;1.00;;;;;;4990156;28;20861;-76
2023/07/31 02:47:53;;;;;;;6.33;2.80;;;19.10;1.00;;;;;;4989063;28;20276;-77
2023/07/31 02:50:19;;;;;;;5.90;2.83;;;19.10;1.00;;;;;;4990139;28;20172;-77
2023/07/31 02:52:44;;;;;;;8.53;2.70;;;19.00;1.00;;;;;;4989240;28;20179;-75
2023/07/31 02:55:10;;;;;;;7.00;3.00;;;19.00;1.00;;;;;;4989620;28;20195;-76
2023/07/31 02:57:35;;;;;;;10.20;3.20;;;19.00;1.00;;;;;;4989589;28;20199;-76
2023/07/31 03:00:01;;;;;;;7.40;3.00;;;19.00;1.00;;;;;;4992272;28;20763;-76
2023/07/31 03:02:26;;;;;;;6.10;3.47;;;19.00;1.00;;;;;;4989290;28;20171;-75
2023/07/31 03:04:52;;;;;;;5.80;2.87;;;19.00;1.00;;;;;;4989200;28;20714;-77
2023/07/31 03:07:17;;;;;;;6.63;2.80;;;18.80;1.00;;;;;;4981335;28;20217;-75
2023/07/31 03:09:43;;;;;;;4.87;3.03;;;18.80;1.00;;;;;;4989553;28;20184;-73
2023/07/31 03:12:09;;;;;;;8.93;3.20;;;18.80;1.00;;;;;;4989668;28;20254;-73
2023/07/31 03:14:34;;;;;;;7.00;2.93;;;18.80;1.00;;;;;;4989721;28;20242;-76
2023/07/31 03:17:00;;;;;;;8.83;3.03;;;18.70;1.00;;;;;;4988686;28;20226;-75
2023/07/31 03:19:26;;;;;;;4.80;2.83;;;18.60;1.00;;;;;;4989528;28;20426;-75
2023/07/31 03:21:51;;;;;;;6.13;2.70;;;18.50;1.00;;;;;;4992093;28;20190;-75
2023/07/31 03:24:17;;;;;;;3.83;2.60;;;18.50;1.00;;;;;;4989155;28;20230;-76
2023/07/31 03:26:43;;;;;;;7.70;3.90;;;18.50;1.00;;;;;;4987454;28;20621;-78
2023/07/31 03:29:08;;;;;;;6.47;3.73;;;18.40;1.00;;;;;;4987011;28;20190;-76
2023/07/31 03:31:34;;;;;;;7.60;3.20;;;18.40;1.00;;;;;;4993147;28;20266;-76
2023/07/31 03:33:59;;;;;;;8.27;3.53;;;18.40;1.00;;;;;;4992916;28;20266;-75
2023/07/31 03:36:25;;;;;;;7.23;3.20;;;18.40;1.00;;;;;;4992813;28;20627;-76
2023/07/31 03:38:52;;;;;;;7.43;3.20;;;18.30;1.00;;;;;;4992808;28;20229;-77
2023/07/31 03:41:17;;;;;;;6.70;3.20;;;18.30;1.00;;;;;;4991351;28;20282;-76
2023/07/31 03:43:43;;;;;;;6.23;2.83;;;18.30;1.00;;;;;;4990868;28;20569;-76
2023/07/31 03:46:08;;;;;;;7.73;3.27;;;18.20;1.00;;;;;;4991059;28;20597;-75
2023/07/31 03:48:34;;;;;;;7.93;3.10;;;18.20;1.00;;;;;;4990793;28;20624;-77
2023/07/31 03:50:59;;;;;;;6.93;3.13;;;18.20;1.00;;;;;;4990961;28;20207;-77
2023/07/31 03:53:25;;;;;;;4.50;2.97;;;18.20;1.00;;;;;;4990672;28;20628;-76
2023/07/31 03:55:50;;;;;;;5.70;3.10;;;18.20;1.00;;;;;;4989975;28;20187;-76
2023/07/31 03:58:16;;;;;;;5.57;3.00;;;18.20;1.00;;;;;;4992289;28;20253;-77
2023/07/31 04:00:41;;;;;;;5.67;3.30;;;18.20;1.00;;;;;;4992765;28;20241;-75
2023/07/31 04:03:07;;;;;;;7.73;3.20;;;18.20;1.00;;;;;;4996583;28;20180;-76
2023/07/31 04:05:33;;;;;;;5.57;3.07;;;18.20;1.00;;;;;;4992772;28;20186;-75
2023/07/31 04:07:58;;;;;;;7.80;2.97;;;18.20;1.00;;;;;;4991503;28;20203;-77
2023/07/31 04:10:24;;;;;;;7.83;3.20;;;18.30;1.00;;;;;;4992938;28;20171;-76
2023/07/31 04:12:49;;;;;;;6.77;3.23;;;18.20;1.00;;;;;;4991623;28;20186;-76
2023/07/31 04:15:15;;;;;;;5.33;3.30;;;18.20;1.00;;;;;;4997705;28;20305;-76
2023/07/31 04:17:40;;;;;;;6.33;3.47;;;18.30;1.00;;;;;;4992124;28;20716;-75
2023/07/31 04:20:06;;;;;;;6.67;2.90;;;18.30;1.00;;;;;;4992122;28;20179;-76
2023/07/31 04:22:32;;;;;;;7.90;3.17;;;18.30;1.00;;;;;;4992136;28;20709;-76
2023/07/31 04:24:57;;;;;;;7.30;3.50;;;18.40;1.00;;;;;;4991796;28;20217;-75
2023/07/31 04:27:23;;;;;;;8.27;3.50;;;18.40;1.00;;;;;;4992139;28;20203;-74
2023/07/31 04:29:49;;;;;;;9.77;3.87;;;18.40;1.00;;;;;;4991847;28;20195;-75
2023/07/31 04:32:16;;;;;;;5.33;3.60;;;18.40;1.00;;;;;;4990161;28;20645;-76
2023/07/31 04:34:42;;;;;;;8.07;3.93;;;18.40;1.00;;;;;;4991918;28;20561;-75
2023/07/31 04:37:07;;;;;;;7.63;4.00;;;18.40;1.00;;;;;;4991473;28;20472;-75
2023/07/31 04:39:33;;;;;;;5.40;3.93;;;18.40;1.00;;;;;;4995113;28;20187;-76
2023/07/31 04:41:58;;;;;;;9.37;4.20;;;18.30;1.00;;;;;;4991466;28;20218;-75
2023/07/31 04:44:24;;;;;;;6.27;3.40;;;18.40;1.00;;;;;;4991564;28;20198;-77
2023/07/31 04:46:50;;;;;;;4.90;3.40;;;18.50;1.00;;;;;;4991710;28;20199;-75
2023/07/31 04:49:15;;;;;;;9.33;3.60;;;18.50;1.00;;;;;;4991780;28;20176;-76
2023/07/31 04:51:41;;;;;;;8.13;3.50;;;18.60;1.00;;;;;;4992906;28;20259;-75
2023/07/31 04:54:06;;;;;;;6.20;3.60;;;18.60;1.00;;;;;;4991270;28;20187;-73
2023/07/31 04:56:31;;;;;;;5.13;3.47;;;18.60;1.00;;;;;;4989324;28;20604;-75
2023/07/31 04:58:57;;;;;;;8.13;3.50;;;18.60;1.00;;;;;;4989386;28;20187;-76
2023/07/31 05:01:22;;;;;;;8.00;3.63;;;18.70;1.00;;;;;;4991334;28;20187;-74
2023/07/31 05:03:48;;;;;;;6.30;3.43;;;18.70;1.00;;;;;;4992243;28;20211;-74
2023/07/31 05:06:15;;;;;;;7.27;3.13;;;18.80;1.00;;;;;;4990776;28;20187;-74
2023/07/31 05:08:40;;;;;;;7.47;3.47;;;18.80;1.00;;;;;;4991056;28;20202;-76
2023/07/31 05:11:06;;;;;;;9.50;3.17;;;18.90;1.00;;;;;;4991129;28;20415;-75
2023/07/31 05:13:32;;;;;;;8.20;3.50;;;19.00;1.00;;;;;;4990456;28;20191;-76
2023/07/31 05:15:57;;;;;;;5.50;3.27;;;18.90;1.00;;;;;;4995839;28;20192;-75
2023/07/31 05:18:23;;;;;;;6.40;3.20;;;19.00;1.00;;;;;;4990575;28;20225;-76
2023/07/31 05:20:48;;;;;;;9.00;3.40;;;19.00;1.00;;;;;;4989833;28;20206;-78
2023/07/31 05:23:14;;;;;;;5.10;2.93;;;19.10;1.00;;;;;;4983053;28;20187;-74
2023/07/31 05:25:39;;;;;;;5.97;3.20;;;19.20;1.00;;;;;;4991226;28;20179;-76
2023/07/31 05:28:05;;;;;;;6.43;3.20;;;19.20;1.00;;;;;;4989641;28;20286;-75
2023/07/31 05:30:31;;;;;;;4.67;2.67;;;19.00;1.00;;;;;;4990384;28;20650;-76
2023/07/31 05:32:56;;;;;;;5.97;3.30;;;19.00;1.00;;;;;;4990468;28;20176;-76
2023/07/31 05:35:22;;;;;;;7.20;3.07;;;19.10;1.00;;;;;;4990998;28;20230;-75
2023/07/31 05:37:47;;;;;;;7.13;2.70;;;19.00;1.00;;;;;;4989738;28;20206;-76
2023/07/31 05:40:13;;;;;;;9.73;3.40;;;19.10;1.00;;;;;;4990220;28;20651;-76
2023/07/31 05:42:39;;;;;;;8.77;3.40;;;19.30;1.00;;;;;;4990297;28;20258;-74
2023/07/31 05:45:06;;;;;;;5.80;2.80;;;19.20;1.00;;;;;;4989347;28;20549;-75
2023/07/31 05:47:32;;;;;;;6.07;3.13;;;19.10;1.00;;;;;;4990024;28;20261;-75
2023/07/31 05:49:57;;;;;;;11.77;3.50;;;19.20;1.00;;;;;;4989640;28;20422;-75
2023/07/31 05:52:23;;;;;;;9.07;3.60;;;19.10;1.00;;;;;;4991413;28;20771;-75
2023/07/31 05:54:48;;;;;;;7.47;3.30;;;19.30;1.00;;;;;;4990530;28;20206;-76
2023/07/31 05:57:14;;;;;;;5.50;3.07;;;19.20;1.00;;;;;;4989802;28;20281;-75
2023/07/31 05:59:39;;;;;;;7.40;2.93;;;19.10;1.00;;;;;;4987373;28;20221;-76
2023/07/31 06:02:06;;;;;;;10.90;3.23;;;19.10;1.00;;;;;;4988693;28;20183;-76
2023/07/31 06:04:31;;;;;;;9.03;3.57;;;19.20;1.00;;;;;;4989113;28;20210;-75
2023/07/31 06:06:57;;;;;;;7.37;3.33;;;19.20;1.00;;;;;;4988553;28;20462;-73
2023/07/31 06:09:22;;;;;;;8.20;3.37;;;19.10;1.00;;;;;;4989148;28;20284;-75
2023/07/31 06:11:48;;;;;;;9.50;3.20;;;19.20;1.00;;;;;;4988345;28;20291;-77
2023/07/31 06:14:13;;;;;;;6.27;3.17;;;19.20;1.00;;;;;;4985015;28;20597;-76
2023/07/31 06:16:39;;;;;;;5.70;2.70;;;19.40;1.00;;;;;;4986980;28;20472;-74
2023/07/31 06:19:04;;;;;;;5.60;3.13;;;19.40;1.00;;;;;;4989161;28;20550;-73
2023/07/31 06:21:31;;;;;;;5.43;3.37;;;19.40;1.00;;;;;;4987539;28;20190;-74
2023/07/31 06:23:56;;;;;;;7.47;2.87;;;19.40;1.00;;;;;;4989362;28;20394;-74
2023/07/31 06:26:22;;;;;;;9.87;3.13;;;19.50;1.00;;;;;;4987852;28;20442;-74
2023/07/31 06:28:47;;;;;;;8.40;3.10;;;19.50;1.00;;;;;;4987723;28;20187;-74
2023/07/31 06:31:13;;;;;;;4.80;2.97;;;19.50;1.00;;;;;;4985728;28;20175;-75
2023/07/31 06:33:38;;;;;;;8.07;3.20;;;19.50;1.00;;;;;;4988555;28;20197;-74
2023/07/31 06:36:04;;;;;;;7.77;3.40;;;19.60;1.00;;;;;;4986478;28;20674;-74
2023/07/31 06:38:29;;;;;;;5.63;2.80;;;19.60;1.00;;;;;;4987383;28;20672;-74
2023/07/31 06:40:55;;;;;;;7.30;2.93;;;19.50;1.00;;;;;;4985573;28;20767;-73
2023/07/31 06:43:21;;;;;;;7.27;2.90;;;19.60;1.00;;;;;;4985482;28;20289;-73
2023/07/31 06:45:48;;;;;;;7.27;2.90;;;19.60;1.00;;;;;;4986378;28;20187;-74
2023/07/31 06:48:13;;;;;;;6.67;3.10;;;19.70;1.00;;;;;;4986304;28;20689;-74
2023/07/31 06:50:39;;;;;;;8.23;3.27;;;19.80;1.00;;;;;;4987431;28;20438;-74
2023/07/31 06:53:04;;;;;;;5.80;2.80;;;19.80;1.00;;;;;;4985808;28;20207;-76
2023/07/31 06:55:30;;;;;;;8.13;3.27;;;20.00;1.00;;;;;;4984746;28;20182;-73
2023/07/31 06:57:56;;;;;;;8.20;2.80;;;20.00;1.00;;;;;;4981818;28;20242;-75
2023/07/31 07:00:23;;;;;;;5.40;3.00;;;20.10;1.00;;;;;;4992076;28;20186;-76
2023/07/31 07:02:49;;;;;;;6.37;2.97;;;20.10;1.00;;;;;;4992910;28;20429;-74
2023/07/31 07:05:16;;;;;;;8.30;2.80;;;20.10;1.00;;;;;;4992181;28;20493;-74
2023/07/31 07:07:42;;;;;;;9.67;3.10;;;20.10;1.00;;;;;;4988760;28;20473;-73
2023/07/31 07:10:08;;;;;;;7.40;3.00;;;20.20;1.00;;;;;;4988271;28;20430;-77
2023/07/31 07:12:35;;;;;;;6.07;2.87;;;20.20;1.00;;;;;;4981442;28;20600;-75
2023/07/31 07:15:01;;;;;;;8.90;3.03;;;20.10;1.00;;;;;;4991962;28;20890;-75
2023/07/31 07:17:30;;;;;;;8.30;3.20;;;20.20;1.00;;;;;;4985075;28;20463;-75
2023/07/31 07:19:56;;;;;;;8.73;2.97;;;20.40;1.00;;;;;;4987444;28;20190;-75
2023/07/31 07:22:21;;;;;;;6.57;3.03;;;20.60;1.00;;;;;;4990826;28;20434;-74
2023/07/31 07:24:47;;;;;;;7.13;3.57;;;20.70;1.00;;;;;;4986715;28;20211;-77
2023/07/31 07:27:12;;;;;;;5.50;3.27;;;20.80;1.00;;;;;;4985679;28;21738;-74
2023/07/31 07:29:38;;;;;;;5.90;2.77;;;20.90;1.00;;;;;;4989235;28;20865;-74
2023/07/31 07:32:04;;;;;;;6.83;3.00;;;21.00;1.00;;;;;;4989328;28;20233;-74
2023/07/31 07:34:30;;;;;;;6.03;2.90;;;21.00;1.00;;;;;;4987592;28;20329;-74
2023/07/31 07:36:56;;;;;;;7.77;3.23;;;21.10;1.00;;;;;;4989307;28;20480;-74
2023/07/31 07:39:21;;;;;;;8.37;3.17;;;21.20;1.00;;;;;;4988751;28;20691;-74
2023/07/31 07:41:47;;;;;;;7.20;2.90;;;21.30;1.00;;;;;;4991796;28;20191;-73
2023/07/31 07:44:13;;;;;;;5.80;2.80;;;21.40;1.00;;;;;;4989055;28;20245;-74
2023/07/31 07:46:39;;;;;;;6.40;2.80;;;21.20;1.00;;;;;;4988122;28;20536;-74
2023/07/31 07:49:05;;;;;;;12.20;3.23;;;21.00;1.00;;;;;;4990437;28;20438;-74
2023/07/31 07:51:31;;;;;;;8.90;3.10;;;21.10;1.00;;;;;;4989465;28;20179;-75
2023/07/31 07:53:57;;;;;;;7.10;3.17;;;21.20;1.00;;;;;;4989226;28;20213;-74
2023/07/31 07:56:24;;;;;;;9.07;2.77;;;21.30;1.00;;;;;;4987040;28;20440;-74
2023/07/31 07:58:50;;;;;;;6.80;3.10;;;21.30;1.00;;;;;;4989507;28;20434;-74
2023/07/31 08:01:15;;;;;;;8.07;3.53;;;21.30;1.00;;;;;;4989546;28;20441;-76
2023/07/31 08:03:41;;;;;;;5.37;3.10;;;21.30;1.00;;;;;;4990808;28;20454;-72
2023/07/31 08:06:09;;;;;;;5.60;3.23;;;21.30;1.00;;;;;;4989165;28;20544;-74
2023/07/31 08:08:35;;;;;;;5.90;2.80;;;21.40;1.00;;;;;;4990617;28;20191;-75
2023/07/31 08:11:00;;;;;;;4.70;2.73;;;21.60;1.00;;;;;;4988649;28;20426;-75
2023/07/31 08:13:26;;;;;;;6.77;3.30;;;21.50;1.00;;;;;;4989784;28;20450;-75
2023/07/31 08:15:51;;;;;;;8.67;2.73;;;21.90;1.00;;;;;;4986990;28;20199;-76
2023/07/31 08:18:17;;;;;;;7.90;3.20;;;22.10;1.00;;;;;;4988693;28;20207;-75
2023/07/31 08:20:43;;;;;;;10.00;3.10;;;22.20;1.00;;;;;;4990899;28;20178;-75
2023/07/31 08:23:09;;;;;;;7.20;3.07;;;22.40;1.00;;;;;;4987708;28;20171;-75
2023/07/31 08:25:35;;;;;;;8.90;3.40;;;22.40;1.00;;;;;;4988604;28;20432;-77
2023/07/31 08:28:02;;;;;;;8.73;3.43;;;22.40;1.00;;;;;;4988547;28;20689;-76
2023/07/31 08:30:27;;;;;;;11.13;3.40;;;22.50;1.00;;;;;;4990759;28;20442;-76
2023/07/31 08:32:53;;;;;;;5.20;2.67;;;22.30;1.00;;;;;;4990467;28;20442;-76
2023/07/31 08:35:18;;;;;;;8.30;2.90;;;22.40;1.00;;;;;;4987605;28;20187;-77
2023/07/31 08:37:44;;;;;;;8.17;3.10;;;22.40;1.00;;;;;;4989729;28;20202;-76
2023/07/31 08:40:10;;;;;;;7.07;3.10;;;22.50;1.00;;;;;;4988134;28;20179;-76
2023/07/31 08:42:49;;;;;;;6.57;2.93;;;22.50;1.00;;;;;;4989307;28;20197;-75
2023/07/31 08:45:17;;;;;;;7.97;3.20;;;22.80;1.00;;;;;;4990696;28;20461;-77
2023/07/31 08:47:46;;;;;;;7.27;3.20;;;23.20;1.00;;;;;;4990284;28;20529;-75
2023/07/31 08:50:17;;;;;;;6.13;2.80;;;23.30;1.00;;;;;;4987361;28;20844;-75
2023/07/31 08:52:42;;;;;;;6.17;3.10;;;23.50;1.00;;;;;;4988171;28;20504;-76
2023/07/31 08:55:08;;;;;;;9.00;3.03;;;23.20;1.00;;;;;;4989361;28;20437;-75
2023/07/31 08:57:36;;;;;;;7.90;3.00;;;23.40;1.00;;;;;;4989697;28;20202;-77
2023/07/31 09:00:03;;;;;;;4.83;2.70;;;23.70;1.00;;;;;;4985887;28;20511;-75
2023/07/31 09:02:43;;;;;;;6.33;3.10;;;23.70;1.00;;;;;;4988957;28;20468;-76
2023/07/31 09:05:10;;;;;;;5.10;2.70;;;23.50;1.00;;;;;;4987278;28;20983;-75
2023/07/31 09:07:36;;;;;;;6.00;2.90;;;23.40;1.00;;;;;;4986751;28;20473;-75
2023/07/31 09:10:02;;;;;;;7.00;2.77;;;23.00;1.00;;;;;;4987905;28;20896;-75
2023/07/31 09:12:28;;;;;;;6.97;2.73;;;22.90;1.00;;;;;;4986956;28;20222;-76
2023/07/31 09:14:53;;;;;;;7.53;2.97;;;22.90;1.00;;;;;;4986907;28;20476;-76
2023/07/31 09:17:33;;;;;;;7.03;3.17;;;24.30;1.00;;;;;;4985015;28;20744;-75
2023/07/31 09:20:12;;;;;;;10.60;3.57;;;23.40;1.00;;;;;;4985691;28;20297;-75
2023/07/31 09:22:38;;;;;;;6.30;3.53;;;24.50;1.00;;;;;;4986818;28;20821;-76
2023/07/31 09:25:24;;;;;;;9.90;3.30;;;25.20;1.00;;;;;;4988958;28;21138;-75
2023/07/31 09:27:59;;;;;;;8.93;3.53;;;25.50;1.00;;;;;;4987206;28;20232;-76
2023/07/31 09:30:25;;;;;;;8.33;3.90;;;26.30;1.00;;;;;;4988790;28;20564;-77
2023/07/31 09:32:59;;;;;;;8.13;3.10;;;26.50;1.00;;;;;;4987694;28;20528;-73
2023/07/31 09:35:32;;;;;;;6.80;3.30;;;26.60;1.00;;;;;;4988270;28;20186;-76
2023/07/31 09:38:00;;;;;;;8.57;3.27;;;25.60;1.00;;;;;;4989442;28;20461;-74
2023/07/31 09:40:37;;;;;;;9.70;3.10;;;22.90;1.00;;;;;;5058598;28;21007;-75
2023/07/31 09:43:11;;;;;;;7.17;3.70;;;26.90;1.00;;;;;;5063928;28;20936;-75
2023/07/31 09:45:39;;;;;;;6.43;3.23;;;27.30;1.00;;;;;;5063963;28;20446;-73
2023/07/31 09:48:15;;;;;;;24.93;3.50;;;27.40;1.00;;;;;;5062332;28;20215;-76
2023/07/31 09:50:42;;;;;;;5.57;3.10;;;26.90;1.00;;;;;;5051555;28;20691;-74
2023/07/31 09:53:09;;;;;;;7.03;3.63;;;26.00;1.00;;;;;;5050127;28;20925;-74
2023/07/31 09:55:35;;;;;;;6.90;3.00;;;25.20;1.00;;;;;;5055035;28;20521;-73
2023/07/31 09:58:06;;;;;;;7.03;3.60;;;24.80;1.00;;;;;;5055121;28;20454;-74
2023/07/31 10:00:32;;;;;;;8.20;3.60;;;25.00;1.00;;;;;;5052960;28;20437;-73
2023/07/31 10:03:04;;;;;;;5.53;3.00;;;25.40;1.00;;;;;;5054597;28;20522;-74
2023/07/31 10:05:50;;;;;;;6.10;3.30;;;25.60;1.00;;;;;;5053470;28;20195;-73
2023/07/31 10:08:19;;;;;;;8.83;3.57;;;25.60;1.00;;;;;;5050014;28;20450;-73
2023/07/31 10:10:45;;;;;;;9.90;3.63;;;25.40;1.00;;;;;;5048636;28;20443;-74
2023/07/31 10:13:12;;;;;;;6.77;3.30;;;25.50;1.00;;;;;;5059385;28;20983;-74
2023/07/31 10:15:38;;;;;;;7.63;3.57;;;25.60;1.00;;;;;;5065343;28;20427;-75
2023/07/31 10:18:06;;;;;;;6.30;3.13;;;25.40;1.00;;;;;;5065949;28;20450;-72
2023/07/31 10:20:33;;;;;;;8.13;3.60;;;25.60;1.00;;;;;;5063324;28;20180;-74
2023/07/31 10:22:59;;;;;;;12.40;3.80;;;25.60;1.00;;;;;;5049902;28;20435;-73
2023/07/31 10:25:26;;;;;;;7.60;3.70;;;25.50;1.00;;;;;;5064802;28;20414;-74
2023/07/31 10:27:53;;;;;;;13.73;7.03;;;25.40;1.00;;;;;;5057753;28;20453;-77
2023/07/31 10:30:24;;;;;;;7.27;3.40;;;25.60;1.00;;;;;;5055241;28;20426;-77
2023/07/31 10:32:51;;;;;;;9.53;4.93;;;25.90;1.00;;;;;;5055965;28;20498;-78
2023/07/31 10:35:17;;;;;;;10.50;4.27;;;26.20;1.00;;;;;;5054035;28;20422;-77
2023/07/31 10:37:43;;;;;;;19.23;6.10;;;26.30;1.00;;;;;;5055879;28;20557;-76
2023/07/31 10:40:16;;;;;;;13.40;6.50;;;26.60;1.00;;;;;;5055594;28;20455;-76
2023/07/31 10:42:53;;;;;;;7.43;4.00;;;27.00;1.00;;;;;;5053075;28;20419;-78
2023/07/31 10:45:36;;;;;;;10.87;5.10;;;26.80;1.00;;;;;;5049844;28;20962;-77
2023/07/31 10:48:12;;;;;;;7.47;3.83;;;27.30;1.00;;;;;;5050199;28;22187;-77
2023/07/31 10:50:39;;;;;;;7.50;3.67;;;27.00;1.00;;;;;;5045138;28;20188;-75
2023/07/31 10:53:04;;;;;;;9.33;3.57;;;28.60;1.00;;;;;;5039912;28;20442;-76
2023/07/31 10:55:40;;;;;;;9.53;3.47;;;26.80;1.00;;;;;;5033478;28;21034;-75
2023/07/31 10:58:14;;;;;;;6.53;3.43;;;27.10;1.00;;;;;;5036109;28;20204;-74
2023/07/31 11:00:44;;;;;;;6.73;3.07;;;27.30;1.00;;;;;;5036957;28;20436;-75
2023/07/31 11:03:17;;;;;;;10.33;4.20;;;27.00;1.00;;;;;;5039642;28;20435;-77
2023/07/31 11:05:53;;;;;;;10.10;3.47;;;26.10;1.00;;;;;;5040730;28;20804;-76
2023/07/31 11:08:26;;;;;;;7.93;3.50;;;25.20;1.00;;;;;;5043617;28;20442;-79
2023/07/31 11:11:12;;;;;;;7.27;3.40;;;25.30;1.00;;;;;;5040536;28;20949;-75
2023/07/31 11:13:52;;;;;;;8.77;3.60;;;25.00;1.00;;;;;;5041543;28;20509;-75
2023/07/31 11:16:20;;;;;;;5.90;3.20;;;25.00;1.00;;;;;;5034374;28;20440;-76
2023/07/31 11:18:48;;;;;;;8.90;3.33;;;25.20;1.00;;;;;;5042134;28;22108;-72
2023/07/31 11:21:21;;;;;;;6.60;3.50;;;25.20;1.00;;;;;;5034669;28;20868;-74
2023/07/31 11:23:49;;;;;;;5.30;3.33;;;25.40;1.00;;;;;;5041332;28;20434;-72
2023/07/31 11:26:15;;;;;;;8.93;3.60;;;25.50;1.00;;;;;;5044309;28;20966;-77
2023/07/31 11:28:42;;;;;;;5.57;3.20;;;25.50;1.00;;;;;;5042951;28;20456;-72
2023/07/31 11:31:09;;;;;;;7.83;3.50;;;25.70;1.00;;;;;;5032415;28;20184;-74
2023/07/31 11:33:35;;;;;;;6.83;3.30;;;25.40;1.00;;;;;;5044083;28;20957;-74
2023/07/31 11:36:00;;;;;;;6.00;2.93;;;25.30;1.00;;;;;;5037982;28;20529;-74
2023/07/31 11:38:31;;;;;;;9.83;3.73;;;25.00;1.00;;;;;;5033891;28;20618;-71
2023/07/31 11:41:02;;;;;;;8.73;3.20;;;24.80;1.00;;;;;;5040300;28;20679;-74
2023/07/31 11:43:29;;;;;;;7.40;3.60;;;24.90;1.00;;;;;;5042919;28;20443;-73
2023/07/31 11:45:56;;;;;;;8.77;3.23;;;24.80;1.00;;;;;;5033118;28;21908;-76
2023/07/31 11:48:26;;;;;;;7.83;3.13;;;24.70;1.00;;;;;;5035842;28;20451;-74
2023/07/31 11:50:53;;;;;;;9.83;3.20;;;24.80;1.00;;;;;;5042329;28;20533;-73
2023/07/31 11:53:26;;;;;;;8.63;3.07;;;25.20;1.00;;;;;;5035798;28;20462;-73
2023/07/31 11:55:52;;;;;;;10.63;3.47;;;27.00;1.00;;;;;;5033398;28;20438;-73
2023/07/31 11:58:19;;;;;;;10.70;3.60;;;27.70;1.00;;;;;;5036611;28;20555;-76
2023/07/31 12:00:45;;;;;;;10.33;3.27;;;30.60;1.00;;;;;;5038647;28;20435;-73
2023/07/31 12:03:11;;;;;;;7.83;3.33;;;29.00;1.00;;;;;;5034031;28;20909;-72
2023/07/31 12:05:38;;;;;;;6.90;3.13;;;29.20;1.00;;;;;;5042691;28;20483;-74
2023/07/31 12:08:09;;;;;;;9.30;3.70;;;29.80;1.00;;;;;;5038308;28;20284;-75
2023/07/31 12:10:34;;;;;;;7.13;3.30;;;29.30;1.00;;;;;;5039196;28;20177;-73
2023/07/31 12:13:10;;;;;;;9.80;3.43;;;28.30;1.00;;;;;;5035392;28;20590;-72
2023/07/31 12:15:43;;;;;;;6.70;3.43;;;27.20;1.00;;;;;;5038044;28;20176;-74
2023/07/31 12:18:09;;;;;;;9.20;3.80;;;27.10;1.00;;;;;;5036928;28;20201;-78
2023/07/31 12:20:35;;;;;;;7.27;3.40;;;26.50;1.00;;;;;;5047036;28;20518;-73
2023/07/31 12:23:01;;;;;;;8.20;3.67;;;26.20;1.00;;;;;;5040108;28;20192;-73
2023/07/31 12:25:33;;;;;;;6.17;3.40;;;25.50;1.00;;;;;;5044620;28;20471;-77
2023/07/31 12:28:05;;;;;;;6.83;3.47;;;25.70;1.00;;;;;;5039128;28;20897;-72
2023/07/31 12:30:34;;;;;;;6.57;3.40;;;26.00;1.00;;;;;;5032404;28;20457;-75
2023/07/31 12:33:21;;;;;;;7.53;3.70;;;26.40;1.00;;;;;;5044380;28;20525;-74
2023/07/31 12:35:47;;;;;;;7.13;3.53;;;26.30;1.00;;;;;;5042415;28;20435;-74
2023/07/31 12:38:13;;;;;;;5.20;2.97;;;27.10;1.00;;;;;;5033222;28;20474;-74
2023/07/31 12:40:41;;;;;;;7.17;3.90;;;27.80;1.00;;;;;;5031964;28;20200;-74
2023/07/31 12:43:07;;;;;;;8.40;3.60;;;28.20;1.00;;;;;;5029676;28;20235;-76
2023/07/31 12:45:33;;;;;;;5.93;3.17;;;28.70;1.00;;;;;;5036220;28;20496;-79
2023/07/31 12:47:59;;;;;;;7.03;3.40;;;29.50;1.00;;;;;;5029533;28;20730;-77
2023/07/31 12:50:25;;;;;;;7.20;3.47;;;29.90;1.00;;;;;;5047088;28;20188;-79
2023/07/31 12:52:53;;;;;;;5.07;3.05;;;31.30;1.00;;;;;;5039025;28;20217;-73
2023/07/31 12:55:18;;;;;;;5.95;3.30;;;32.50;1.00;;;;;;5041611;28;20267;-73